createdAt,value
2019-04-20T00:01:32.302Z,95.80
2019-04-20T00:06:42.944Z,96.20
2019-04-20T00:11:53.467Z,97.40
2019-04-20T00:16:52.673Z,98.30
2019-04-20T00:22:07.032Z,99.00
2019-04-20T00:27:31.349Z,99.80
2019-04-20T00:32:34.257Z,99.90
2019-04-20T00:37:25.430Z,99.90
2019-04-20T00:42:39.166Z,99.90
2019-04-20T00:47:48.935Z,99.90
2019-04-20T00:52:56.478Z,99.90
2019-04-20T00:57:55.374Z,99.90
2019-04-20T01:03:19.676Z,99.90
2019-04-20T01:08:23.242Z,99.90
2019-04-20T01:13:30.242Z,99.90
2019-04-20T01:18:36.891Z,99.90
2019-04-20T01:23:50.789Z,99.90
2019-04-20T01:29:03.945Z,99.90
2019-04-20T01:34:03.076Z,99.90
2019-04-20T01:39:16.314Z,99.90
2019-04-20T01:44:09.757Z,99.90
2019-04-20T01:49:22.085Z,99.90
2019-04-20T01:54:42.302Z,99.90
2019-04-20T01:59:52.110Z,99.90
2019-04-20T02:04:54.992Z,99.90
2019-04-20T02:10:03.631Z,99.90
2019-04-20T02:15:13.027Z,99.90
2019-04-20T02:20:35.971Z,99.90
2019-04-20T02:25:20.679Z,99.90
2019-04-20T02:46:48.953Z,99.90
2019-04-20T03:01:55.335Z,99.90
2019-04-20T03:06:58.939Z,99.90
2019-04-20T03:12:28.870Z,99.90
2019-04-20T03:17:23.429Z,99.90
2019-04-20T03:22:33.718Z,99.90
2019-04-20T03:27:30.865Z,99.90
2019-04-20T03:33:02.168Z,99.90
2019-04-20T03:37:52.465Z,99.90
2019-04-20T03:42:39.906Z,99.90
2019-04-20T03:47:57.368Z,99.90
2019-04-20T03:53:19.268Z,99.90
2019-04-20T03:58:28.505Z,99.90
2019-04-20T04:08:38.100Z,99.90
2019-04-20T04:13:39.668Z,99.90
2019-04-20T04:18:49.184Z,99.90
2019-04-20T04:24:08.487Z,99.90
2019-04-20T04:29:28.787Z,99.90
2019-04-20T04:34:31.044Z,99.90
2019-04-20T04:39:35.349Z,99.90
2019-04-20T04:44:35.461Z,99.90
2019-04-20T04:49:34.139Z,99.90
2019-04-20T04:54:45.310Z,99.90
2019-04-20T04:59:42.440Z,99.90
2019-04-20T05:05:17.732Z,99.90
2019-04-20T05:10:07.453Z,99.90
2019-04-20T05:15:22.712Z,99.90
2019-04-20T05:20:47.281Z,99.90
2019-04-20T05:26:08.266Z,99.90
2019-04-20T05:30:56.986Z,99.90
2019-04-20T05:36:18.627Z,99.90
2019-04-20T05:41:21.861Z,99.90
2019-04-20T05:46:32.098Z,99.90
2019-04-20T05:51:41.068Z,99.90
2019-04-20T05:56:47.773Z,99.90
2019-04-20T06:01:58.882Z,99.90
2019-04-20T06:07:03.428Z,99.90
2019-04-20T06:17:27.077Z,99.90
2019-04-20T06:22:45.657Z,99.90
2019-04-20T06:27:48.526Z,99.90
2019-04-20T06:33:50.249Z,99.90
2019-04-20T06:38:48.263Z,99.90
2019-04-20T06:43:40.545Z,99.90
2019-04-20T06:48:52.257Z,99.90
2019-04-20T06:53:57.064Z,99.90
2019-04-20T06:59:21.523Z,99.90
2019-04-20T07:04:38.833Z,99.90
2019-04-20T07:09:42.114Z,99.90
2019-04-20T07:14:27.249Z,99.90
2019-04-20T07:19:50.507Z,99.90
2019-04-20T07:30:07.851Z,99.90
2019-04-20T07:35:14.482Z,99.90
2019-04-20T07:40:20.397Z,99.90
2019-04-20T07:45:30.796Z,99.90
2019-04-20T07:50:31.838Z,99.90
2019-04-20T08:01:05.978Z,99.90
2019-04-20T08:06:14.466Z,99.90
2019-04-20T08:11:36.662Z,99.90
2019-04-20T08:17:09.674Z,99.90
2019-04-20T08:21:47.532Z,99.90
2019-04-20T08:26:41.344Z,99.90
2019-04-20T08:32:18.889Z,99.90
2019-04-20T08:37:20.807Z,99.90
2019-04-20T08:42:40.491Z,99.90
2019-04-20T08:57:37.907Z,99.90
2019-04-20T09:02:48.879Z,99.90
2019-04-20T09:08:04.823Z,99.50
2019-04-20T09:13:13.832Z,99.80
2019-04-20T09:18:28.352Z,98.60
2019-04-20T09:23:43.691Z,97.80
2019-04-20T09:28:59.255Z,96.90
2019-04-20T09:34:14.439Z,95.70
2019-04-20T09:39:22.540Z,93.80
2019-04-20T09:44:18.182Z,92.60
2019-04-20T09:49:37.738Z,92.90
2019-04-20T09:54:48.151Z,92.70
2019-04-20T09:59:57.541Z,92.60
2019-04-20T10:04:44.302Z,91.50
2019-04-20T10:09:50.347Z,90.00
2019-04-20T10:15:02.119Z,90.50
2019-04-20T10:20:10.849Z,87.80
2019-04-20T10:25:10.798Z,86.40
2019-04-20T10:30:16.660Z,83.90
2019-04-20T10:35:23.278Z,81.80
2019-04-20T10:40:41.484Z,81.20
2019-04-20T10:45:37.000Z,81.80
2019-04-20T10:50:43.102Z,80.00
2019-04-20T10:55:49.518Z,79.70
2019-04-20T11:00:55.738Z,78.70
2019-04-20T11:06:02.706Z,77.90
2019-04-20T11:11:14.854Z,77.70
2019-04-20T11:16:15.081Z,77.30
2019-04-20T11:21:20.067Z,76.70
2019-04-20T11:26:26.341Z,77.00
2019-04-20T11:31:37.341Z,75.40
2019-04-20T11:36:39.308Z,75.50
2019-04-20T11:41:45.781Z,74.80
2019-04-20T11:46:50.841Z,73.50
2019-04-20T11:51:57.248Z,72.60
2019-04-20T11:57:03.713Z,73.40
2019-04-20T12:02:40.095Z,73.20
2019-04-20T12:08:01.144Z,73.60
2019-04-20T12:13:10.197Z,72.40
2019-04-20T12:18:17.804Z,71.70
2019-04-20T12:23:24.515Z,71.10
2019-04-20T12:28:33.698Z,72.10
2019-04-20T12:33:46.510Z,71.80
2019-04-20T12:38:54.987Z,71.60
2019-04-20T12:44:01.743Z,72.20
2019-04-20T12:49:17.978Z,72.30
2019-04-20T12:54:29.096Z,72.50
2019-04-20T12:59:42.294Z,71.20
2019-04-20T13:04:49.140Z,70.90
2019-04-20T13:09:54.839Z,70.70
2019-04-20T13:15:29.105Z,71.00
2019-04-20T13:20:36.007Z,70.20
2019-04-20T13:25:44.930Z,70.40
2019-04-20T13:30:57.865Z,69.80
2019-04-20T13:36:08.108Z,70.00
2019-04-20T13:41:13.856Z,67.80
2019-04-20T13:46:25.276Z,67.10
2019-04-20T13:51:41.060Z,66.10
2019-04-20T13:56:50.043Z,65.40
2019-04-20T14:02:12.985Z,65.50
2019-04-20T14:07:22.041Z,66.20
2019-04-20T14:12:38.588Z,65.50
2019-04-20T14:17:44.674Z,65.10
2019-04-20T14:22:56.854Z,63.40
2019-04-20T14:28:11.224Z,62.90
2019-04-20T14:33:20.958Z,61.60
2019-04-20T14:38:28.421Z,60.40
2019-04-20T14:43:35.254Z,59.60
2019-04-20T14:48:54.487Z,57.40
2019-04-20T14:54:13.813Z,58.50
2019-04-20T14:59:27.659Z,57.90
2019-04-20T15:04:34.618Z,57.70
2019-04-20T15:09:40.707Z,57.20
2019-04-20T15:14:50.409Z,57.20
2019-04-20T16:00:08.748Z,56.90
2019-04-20T16:05:37.563Z,56.90
2019-04-20T16:10:43.346Z,57.30
2019-04-20T16:15:49.740Z,58.70
2019-04-20T16:21:03.540Z,60.20
2019-04-20T16:26:21.811Z,61.60
2019-04-20T16:31:28.816Z,62.00
2019-04-20T16:36:34.697Z,61.80
2019-04-20T16:41:40.302Z,60.10
2019-04-20T16:46:46.008Z,61.80
2019-04-20T16:51:52.578Z,62.40
2019-04-20T16:57:00.613Z,62.80
2019-04-20T17:02:06.612Z,62.90
2019-04-20T17:07:21.300Z,63.30
2019-04-20T17:12:27.957Z,63.50
2019-04-20T17:17:33.597Z,63.20
2019-04-20T17:22:38.709Z,63.60
2019-04-20T17:28:08.962Z,64.10
2019-04-20T17:33:16.363Z,64.20
2019-04-20T17:38:22.684Z,64.30
2019-04-20T17:43:37.354Z,64.10
2019-04-20T17:48:45.206Z,64.70
2019-04-20T17:54:05.295Z,64.80
2019-04-20T17:59:08.153Z,65.50
2019-04-20T18:04:49.377Z,64.80
2019-04-20T18:09:47.492Z,65.10
2019-04-20T18:14:45.893Z,65.20
2019-04-20T18:19:47.023Z,65.40
2019-04-20T18:25:12.411Z,65.10
2019-04-20T18:30:15.495Z,65.00
2019-04-20T18:35:14.020Z,65.00
2019-04-20T18:40:29.229Z,65.20
2019-04-20T18:45:39.896Z,65.40
2019-04-20T18:50:40.028Z,65.50
2019-04-20T18:55:46.812Z,65.50
2019-04-20T19:00:51.580Z,66.00
2019-04-20T19:05:55.825Z,66.40
2019-04-20T19:11:06.497Z,66.70
2019-04-20T19:16:29.962Z,67.10
2019-04-20T19:21:26.890Z,67.70
2019-04-20T19:26:32.449Z,68.40
2019-04-20T19:31:57.315Z,69.10
2019-04-20T19:36:59.083Z,70.10
2019-04-20T19:42:07.105Z,70.90
2019-04-20T19:47:24.918Z,71.40
2019-04-20T19:52:36.501Z,72.30
2019-04-20T19:57:32.226Z,73.50
2019-04-20T20:02:21.416Z,74.60
2019-04-20T20:07:35.397Z,75.40
2019-04-20T20:12:35.568Z,76.30
2019-04-20T20:18:00.345Z,77.40
2019-04-20T20:22:50.525Z,78.90
2019-04-20T20:28:03.496Z,80.50
2019-04-20T20:33:19.008Z,81.30
2019-04-20T20:38:20.515Z,81.60
2019-04-20T20:43:33.351Z,81.70
2019-04-20T20:48:38.722Z,81.90
2019-04-20T20:53:42.870Z,82.30
2019-04-20T20:58:49.118Z,82.40
2019-04-20T21:03:48.881Z,81.50
2019-04-20T21:08:54.246Z,81.40
2019-04-20T21:13:59.518Z,81.20
2019-04-20T21:19:21.479Z,81.20
2019-04-20T21:24:28.764Z,81.10
2019-04-20T21:29:40.858Z,80.40
2019-04-20T21:34:50.385Z,79.60
2019-04-20T21:39:54.174Z,79.00
2019-04-20T21:45:05.634Z,78.70
2019-04-20T21:50:20.584Z,77.80
2019-04-20T21:55:10.252Z,77.10
2019-04-20T22:00:36.370Z,77.10
2019-04-20T22:05:40.270Z,76.90
2019-04-20T22:10:47.121Z,76.90
2019-04-20T22:15:59.740Z,77.00
2019-04-20T22:21:10.947Z,77.10
2019-04-20T22:26:18.735Z,76.90
2019-04-20T22:31:15.856Z,77.10
2019-04-20T22:36:26.062Z,77.10
2019-04-20T22:41:28.622Z,77.00
2019-04-20T22:46:37.109Z,76.90
2019-04-20T22:51:52.010Z,76.90
2019-04-20T22:57:02.322Z,77.00
2019-04-20T23:02:02.083Z,77.00
2019-04-20T23:07:06.454Z,77.20
2019-04-20T23:12:17.844Z,77.40
2019-04-20T23:17:26.918Z,77.20
2019-04-20T23:22:35.956Z,77.50
2019-04-20T23:27:38.329Z,77.80
2019-04-20T23:32:44.116Z,78.00
2019-04-20T23:37:50.716Z,78.00
2019-04-20T23:43:03.368Z,78.40
2019-04-20T23:48:16.228Z,78.40
2019-04-20T23:53:37.613Z,78.50
2019-04-20T23:58:33.056Z,78.40
